createdAt,value
2019-06-26T00:02:24.975Z,15.67
2019-06-26T00:05:27.867Z,18.37
2019-06-26T00:08:29.784Z,16.03
2019-06-26T00:11:31.705Z,15.37
2019-06-26T00:14:33.727Z,17.90
2019-06-26T00:17:35.578Z,15.60
2019-06-26T00:20:38.517Z,15.80
2019-06-26T00:23:40.435Z,16.60
2019-06-26T00:26:42.442Z,16.97
2019-06-26T00:29:44.367Z,15.47
2019-06-26T00:32:46.349Z,16.70
2019-06-26T00:35:48.295Z,17.10
2019-06-26T00:38:50.542Z,16.57
2019-06-26T00:41:52.503Z,15.77
2019-06-26T00:44:54.671Z,15.67
2019-06-26T00:47:56.644Z,15.83
2019-06-26T00:50:58.591Z,17.10
2019-06-26T00:54:00.512Z,16.93
2019-06-26T00:57:02.448Z,16.80
2019-06-26T01:00:08.047Z,18.63
2019-06-26T01:03:10.267Z,16.23
2019-06-26T01:06:14.093Z,18.03
2019-06-26T01:09:16.075Z,16.70
2019-06-26T01:12:18.054Z,16.70
2019-06-26T01:15:20.076Z,16.77
2019-06-26T01:18:22.074Z,16.13
2019-06-26T01:21:24.797Z,17.37
2019-06-26T01:24:26.815Z,16.53
2019-06-26T01:27:28.863Z,17.57
2019-06-26T01:30:30.785Z,15.43
2019-06-26T01:33:32.640Z,16.57
2019-06-26T01:36:34.667Z,17.10
2019-06-26T01:39:36.524Z,16.47
2019-06-26T01:42:38.450Z,17.17
2019-06-26T01:45:40.594Z,17.60
2019-06-26T01:48:42.550Z,16.13
2019-06-26T01:51:44.472Z,15.43
2019-06-26T01:54:46.376Z,17.87
2019-06-26T01:57:48.282Z,16.83
2019-06-26T02:00:50.188Z,18.77
2019-06-26T02:03:52.755Z,18.07
2019-06-26T02:06:54.646Z,18.13
2019-06-26T02:09:56.666Z,16.83
2019-06-26T02:12:58.610Z,18.27
2019-06-26T02:16:00.619Z,18.00
2019-06-26T02:19:04.456Z,18.00
2019-06-26T02:22:06.405Z,19.90
2019-06-26T02:25:08.507Z,19.30
2019-06-26T02:28:10.525Z,19.90
2019-06-26T02:31:12.521Z,19.83
2019-06-26T02:34:14.782Z,21.07
2019-06-26T02:37:16.702Z,20.47
2019-06-26T02:40:19.152Z,22.10
2019-06-26T02:43:21.364Z,21.27
2019-06-26T02:46:23.549Z,20.27
2019-06-26T02:49:25.541Z,20.07
2019-06-26T02:52:27.426Z,20.50
2019-06-26T02:55:29.338Z,21.30
2019-06-26T02:58:31.314Z,22.30
2019-06-26T03:01:33.228Z,20.43
2019-06-26T03:04:35.167Z,22.03
2019-06-26T03:07:37.117Z,18.80
2019-06-26T03:10:39.108Z,19.30
2019-06-26T03:13:40.976Z,20.70
2019-06-26T03:16:42.982Z,19.83
2019-06-26T03:19:44.896Z,20.47
2019-06-26T03:22:46.854Z,18.90
2019-06-26T03:25:48.756Z,17.23
2019-06-26T03:28:50.744Z,16.23
2019-06-26T03:31:53.953Z,18.17
2019-06-26T03:34:55.933Z,17.50
2019-06-26T03:37:57.901Z,16.50
2019-06-26T03:40:59.949Z,17.00
2019-06-26T03:44:01.889Z,15.60
2019-06-26T03:47:04.063Z,15.70
2019-06-26T03:50:06.345Z,13.90
2019-06-26T03:53:08.340Z,15.37
2019-06-26T03:56:10.228Z,13.53
2019-06-26T03:59:12.234Z,14.18
2019-06-26T04:02:14.249Z,14.70
2019-06-26T04:05:16.180Z,14.80
2019-06-26T04:08:18.227Z,14.40
2019-06-26T04:11:20.101Z,13.80
2019-06-26T04:14:22.070Z,14.00
2019-06-26T04:17:24.040Z,14.30
2019-06-26T04:20:25.980Z,13.75
2019-06-26T04:23:28.392Z,13.75
2019-06-26T04:26:30.455Z,11.78
2019-06-26T04:29:32.392Z,11.90
2019-06-26T04:32:34.297Z,13.00
2019-06-26T04:35:36.275Z,13.20
2019-06-26T04:38:38.156Z,13.38
2019-06-26T04:41:40.095Z,13.70
2019-06-26T04:44:42.026Z,12.50
2019-06-26T04:47:44.228Z,11.60
2019-06-26T04:50:46.179Z,14.13
2019-06-26T04:53:48.183Z,13.30
2019-06-26T04:56:50.146Z,11.63
2019-06-26T04:59:52.141Z,12.07
2019-06-26T05:02:54.027Z,12.28
2019-06-26T05:05:55.973Z,11.55
2019-06-26T05:08:57.856Z,11.85
2019-06-26T05:11:59.867Z,11.57
2019-06-26T05:15:03.654Z,12.45
2019-06-26T05:18:05.610Z,11.70
2019-06-26T05:21:07.526Z,11.08
2019-06-26T05:24:09.527Z,12.07
2019-06-26T05:27:11.416Z,10.72
2019-06-26T05:30:14.076Z,11.48
2019-06-26T05:33:15.984Z,11.90
2019-06-26T05:36:17.968Z,11.28
2019-06-26T05:39:20.020Z,11.00
2019-06-26T05:42:21.927Z,10.40
2019-06-26T05:45:23.863Z,10.98
2019-06-26T05:48:26.032Z,10.78
2019-06-26T05:51:28.037Z,10.70
2019-06-26T05:54:29.991Z,10.60
2019-06-26T05:57:31.936Z,11.28
2019-06-26T06:00:33.910Z,9.63
2019-06-26T06:03:35.803Z,10.32
2019-06-26T06:06:42.163Z,11.03
2019-06-26T06:09:41.662Z,10.48
2019-06-26T06:12:43.654Z,9.83
2019-06-26T06:15:45.658Z,9.88
2019-06-26T06:18:47.616Z,9.43
2019-06-26T06:21:49.580Z,9.45
2019-06-26T06:24:51.503Z,9.95
2019-06-26T06:27:56.229Z,11.57
2019-06-26T06:30:58.216Z,10.18
2019-06-26T06:34:00.173Z,10.03
2019-06-26T06:37:02.114Z,9.53
2019-06-26T06:40:08.186Z,9.70
2019-06-26T06:43:10.060Z,9.80
2019-06-26T06:46:12.061Z,9.50
2019-06-26T06:49:14.099Z,9.63
2019-06-26T06:52:16.876Z,10.00
2019-06-26T06:55:18.943Z,9.43
2019-06-26T06:58:20.894Z,9.18
2019-06-26T07:01:22.798Z,9.13
2019-06-26T07:04:24.715Z,9.90
2019-06-26T07:07:26.659Z,9.68
2019-06-26T07:10:28.579Z,9.23
2019-06-26T07:13:30.554Z,9.93
2019-06-26T07:16:32.592Z,8.78
2019-06-26T07:19:34.579Z,9.30
2019-06-26T07:22:36.628Z,9.00
2019-06-26T07:25:38.556Z,9.00
2019-06-26T07:28:40.532Z,9.33
2019-06-26T07:31:42.456Z,10.10
2019-06-26T07:34:44.513Z,8.90
2019-06-26T07:37:46.462Z,9.05
2019-06-26T07:40:48.464Z,10.05
2019-06-26T07:43:50.337Z,9.40
2019-06-26T07:46:52.321Z,10.08
2019-06-26T07:49:54.404Z,8.55
2019-06-26T07:52:56.315Z,10.15
2019-06-26T07:55:58.265Z,8.68
2019-06-26T07:59:00.196Z,9.40
2019-06-26T08:02:03.476Z,9.25
2019-06-26T08:05:06.791Z,8.63
2019-06-26T08:08:08.744Z,9.03
2019-06-26T08:11:10.622Z,9.10
2019-06-26T08:14:12.591Z,9.10
2019-06-26T08:17:14.589Z,9.05
2019-06-26T08:20:17.063Z,9.33
2019-06-26T08:23:19.076Z,9.88
2019-06-26T08:26:20.982Z,9.68
2019-06-26T08:29:23.951Z,9.95
2019-06-26T08:32:26.167Z,9.28
2019-06-26T08:35:28.511Z,9.60
2019-06-26T08:38:30.506Z,9.95
2019-06-26T08:41:32.430Z,9.20
2019-06-26T08:44:34.398Z,9.75
2019-06-26T08:47:36.305Z,10.03
2019-06-26T08:50:38.350Z,9.40
2019-06-26T08:53:40.266Z,10.15
2019-06-26T08:56:42.221Z,10.15
2019-06-26T08:59:44.155Z,9.55
2019-06-26T09:02:46.697Z,8.33
2019-06-26T09:05:48.906Z,9.38
2019-06-26T09:08:50.910Z,8.93
2019-06-26T09:11:52.822Z,9.93
2019-06-26T09:14:54.829Z,9.85
2019-06-26T09:17:56.779Z,8.85
2019-06-26T09:20:58.766Z,9.83
2019-06-26T09:24:00.701Z,9.73
2019-06-26T09:27:02.710Z,9.08
2019-06-26T09:30:06.195Z,10.40
2019-06-26T09:33:08.303Z,9.15
2019-06-26T09:36:10.221Z,9.10
2019-06-26T09:39:12.194Z,9.50
2019-06-26T09:42:14.218Z,10.23
2019-06-26T09:45:16.397Z,9.75
2019-06-26T09:48:18.380Z,8.90
2019-06-26T09:51:20.535Z,9.48
2019-06-26T09:54:22.508Z,9.90
2019-06-26T09:57:24.479Z,10.55
2019-06-26T10:00:27.014Z,8.23
2019-06-26T10:03:29.099Z,9.83
2019-06-26T10:06:31.047Z,9.93
2019-06-26T10:09:33.096Z,11.43
2019-06-26T10:12:35.178Z,9.18
2019-06-26T10:15:37.093Z,7.17
2019-06-26T10:18:39.033Z,8.13
2019-06-26T10:21:40.958Z,8.00
2019-06-26T10:24:42.911Z,8.38
2019-06-26T10:27:44.954Z,9.53
2019-06-26T10:30:48.477Z,7.62
2019-06-26T10:33:50.386Z,7.35
2019-06-26T10:36:52.657Z,7.78
2019-06-26T10:39:56.025Z,7.20
2019-06-26T10:42:59.988Z,7.62
2019-06-26T10:46:02.704Z,7.45
2019-06-26T10:49:04.681Z,6.97
2019-06-26T10:52:06.740Z,8.60
2019-06-26T10:55:10.557Z,7.85
2019-06-26T10:58:12.440Z,7.60
2019-06-26T11:01:14.432Z,8.50
2019-06-26T11:04:16.349Z,7.37
2019-06-26T11:07:18.323Z,8.23
2019-06-26T11:10:20.630Z,7.85
2019-06-26T11:13:22.640Z,7.12
2019-06-26T11:16:25.915Z,7.60
2019-06-26T11:19:42.614Z,7.50
2019-06-26T11:22:33.179Z,8.85
2019-06-26T11:25:35.176Z,7.85
2019-06-26T11:28:37.182Z,8.08
2019-06-26T11:31:39.145Z,7.87
2019-06-26T11:34:41.061Z,7.83
2019-06-26T11:37:43.022Z,8.93
2019-06-26T11:40:45.001Z,8.50
2019-06-26T11:43:47.225Z,8.45
2019-06-26T11:46:49.104Z,8.60
2019-06-26T11:49:59.881Z,8.63
2019-06-26T11:52:55.269Z,8.13
2019-06-26T11:55:57.180Z,8.93
2019-06-26T11:58:59.262Z,7.70
2019-06-26T12:02:01.260Z,8.08
2019-06-26T12:05:05.425Z,8.38
2019-06-26T12:08:08.450Z,8.80
2019-06-26T12:11:10.377Z,7.33
2019-06-26T12:14:12.338Z,8.90
2019-06-26T12:17:14.866Z,8.50
2019-06-26T12:20:19.215Z,8.28
2019-06-26T12:23:20.811Z,8.00
2019-06-26T12:26:22.700Z,9.08
2019-06-26T12:29:24.667Z,9.68
2019-06-26T12:32:27.535Z,9.83
2019-06-26T12:35:29.539Z,9.23
2019-06-26T12:38:31.462Z,9.93
2019-06-26T12:41:33.389Z,8.63
2019-06-26T12:44:35.313Z,9.23
2019-06-26T12:47:38.358Z,8.58
2019-06-26T12:50:40.336Z,9.38
2019-06-26T12:53:42.873Z,9.43
2019-06-26T12:56:44.880Z,9.25
2019-06-26T12:59:56.858Z,9.45
2019-06-26T13:02:50.755Z,9.93
2019-06-26T13:05:52.681Z,9.60
2019-06-26T13:08:54.668Z,9.88
2019-06-26T13:11:56.691Z,9.18
2019-06-26T13:14:58.594Z,9.18
2019-06-26T13:18:01.553Z,8.95
2019-06-26T13:21:05.200Z,9.10
2019-06-26T13:24:07.534Z,8.35
2019-06-26T13:27:09.580Z,9.68
2019-06-26T13:30:13.900Z,9.15
2019-06-26T13:33:15.814Z,11.10
2019-06-26T13:36:17.776Z,9.53
2019-06-26T13:39:19.739Z,10.60
2019-06-26T13:42:21.708Z,9.58
2019-06-26T13:45:24.135Z,10.03
2019-06-26T13:48:26.138Z,9.53
2019-06-26T13:51:28.055Z,10.43
2019-06-26T13:54:30.647Z,10.80
2019-06-26T13:57:32.755Z,9.03
2019-06-26T14:00:34.816Z,9.93
2019-06-26T14:03:36.789Z,10.20
2019-06-26T14:06:38.675Z,9.88
2019-06-26T14:09:40.639Z,10.40
2019-06-26T14:12:43.184Z,10.08
2019-06-26T14:15:45.678Z,9.80
2019-06-26T14:18:48.083Z,9.55
2019-06-26T14:21:49.976Z,9.15
2019-06-26T14:24:54.233Z,11.50
2019-06-26T14:27:55.859Z,9.98
2019-06-26T14:30:57.803Z,12.43
2019-06-26T14:33:59.783Z,12.70
2019-06-26T14:37:01.690Z,9.70
2019-06-26T14:40:08.988Z,11.03
2019-06-26T14:43:10.958Z,11.22
2019-06-26T14:46:12.935Z,11.25
2019-06-26T14:49:16.147Z,11.25
2019-06-26T14:52:18.119Z,12.43
2019-06-26T14:55:21.805Z,10.68
2019-06-26T14:58:23.878Z,11.55
2019-06-26T15:01:25.817Z,11.43
2019-06-26T15:04:27.839Z,10.90
2019-06-26T15:07:29.763Z,11.78
2019-06-26T15:10:33.586Z,11.08
2019-06-26T15:13:35.505Z,11.68
2019-06-26T15:16:37.521Z,10.78
2019-06-26T15:19:39.460Z,13.00
2019-06-26T15:22:41.505Z,12.80
2019-06-26T15:25:43.506Z,11.57
2019-06-26T15:28:45.495Z,11.05
2019-06-26T15:31:47.464Z,11.40
2019-06-26T15:34:49.432Z,12.43
2019-06-26T15:37:51.338Z,11.38
2019-06-26T15:40:53.283Z,11.20
2019-06-26T15:43:55.313Z,12.13
2019-06-26T15:46:57.255Z,11.53
2019-06-26T15:49:59.883Z,12.58
2019-06-26T15:53:01.803Z,12.05
2019-06-26T15:56:03.982Z,11.35
2019-06-26T15:59:05.932Z,11.63
2019-06-26T16:02:07.932Z,10.95
2019-06-26T16:05:09.999Z,11.48
2019-06-26T16:08:11.973Z,11.18
2019-06-26T16:11:15.143Z,11.50
2019-06-26T16:14:17.129Z,11.50
2019-06-26T16:17:39.258Z,10.80
2019-06-26T16:20:42.427Z,10.88
2019-06-26T16:23:44.367Z,10.72
2019-06-26T16:26:47.094Z,9.70
2019-06-26T16:29:49.751Z,9.05
2019-06-26T16:32:56.686Z,10.88
2019-06-26T16:35:57.656Z,10.55
2019-06-26T16:39:01.043Z,9.80
2019-06-26T16:42:04.826Z,9.93
2019-06-26T16:45:10.403Z,10.30
2019-06-26T16:48:12.474Z,8.85
2019-06-26T16:51:14.384Z,8.93
2019-06-26T16:54:16.430Z,9.40
2019-06-26T16:57:18.785Z,9.13
2019-06-26T17:00:20.872Z,9.80
2019-06-26T17:03:22.902Z,9.30
2019-06-26T17:06:26.733Z,9.75
2019-06-26T17:09:28.908Z,9.55
2019-06-26T17:12:30.972Z,8.63
2019-06-26T17:15:32.855Z,9.65
2019-06-26T17:18:34.863Z,9.58
2019-06-26T17:21:36.817Z,11.15
2019-06-26T17:24:38.796Z,9.55
2019-06-26T17:27:40.840Z,9.33
2019-06-26T17:30:44.501Z,9.18
2019-06-26T17:33:46.795Z,9.90
2019-06-26T17:36:48.799Z,9.43
2019-06-26T17:39:50.812Z,9.28
2019-06-26T17:42:53.967Z,10.15
2019-06-26T17:45:55.935Z,9.78
2019-06-26T17:48:59.002Z,9.43
2019-06-26T17:52:01.980Z,9.03
2019-06-26T17:55:06.413Z,9.88
2019-06-26T17:58:10.189Z,9.45
2019-06-26T18:01:14.728Z,9.93
2019-06-26T18:04:16.704Z,10.25
2019-06-26T18:07:18.659Z,10.58
2019-06-26T18:10:20.639Z,9.45
2019-06-26T18:13:24.147Z,9.98
2019-06-26T18:16:26.154Z,10.20
2019-06-26T18:19:30.734Z,9.83
2019-06-26T18:22:32.675Z,11.05
2019-06-26T18:25:34.688Z,10.10
2019-06-26T18:28:36.642Z,11.05
2019-06-26T18:31:38.675Z,10.80
2019-06-26T18:34:40.646Z,11.00
2019-06-26T18:37:42.657Z,10.57
2019-06-26T18:40:46.276Z,11.23
2019-06-26T18:43:48.238Z,10.20
2019-06-26T18:46:50.818Z,11.30
2019-06-26T18:49:52.825Z,11.90
2019-06-26T18:52:54.797Z,11.97
2019-06-26T18:55:58.128Z,11.40
2019-06-26T18:59:01.700Z,11.07
2019-06-26T19:02:05.523Z,11.70
2019-06-26T19:05:10.389Z,10.77
2019-06-26T19:08:12.555Z,13.20
2019-06-26T19:11:14.561Z,11.20
2019-06-26T19:14:16.583Z,11.90
2019-06-26T19:17:20.432Z,14.07
2019-06-26T19:20:22.511Z,13.33
2019-06-26T19:23:24.529Z,12.47
2019-06-26T19:26:27.565Z,12.40
2019-06-26T19:29:29.670Z,12.77
2019-06-26T19:32:31.666Z,12.23
2019-06-26T19:35:33.726Z,13.43
2019-06-26T19:38:35.711Z,13.17
2019-06-26T19:41:37.787Z,13.40
2019-06-26T19:44:39.916Z,12.97
2019-06-26T19:47:42.245Z,12.57
2019-06-26T19:50:44.259Z,14.40
2019-06-26T19:53:47.793Z,13.93
2019-06-26T19:56:50.167Z,14.37
2019-06-26T19:59:52.381Z,13.23
2019-06-26T20:02:54.389Z,13.53
2019-06-26T20:05:56.450Z,14.40
2019-06-26T20:08:58.416Z,13.43
2019-06-26T20:12:00.772Z,15.07
2019-06-26T20:15:04.668Z,15.90
2019-06-26T20:18:06.666Z,14.77
2019-06-26T20:21:08.668Z,15.40
2019-06-26T20:24:14.226Z,13.43
2019-06-26T20:27:17.109Z,15.23
2019-06-26T20:30:22.750Z,14.73
2019-06-26T20:33:26.598Z,14.20
2019-06-26T20:36:28.561Z,14.80
2019-06-26T20:39:31.022Z,16.20
2019-06-26T20:42:32.938Z,15.97
2019-06-26T20:45:34.952Z,14.77
2019-06-26T20:48:36.880Z,17.23
2019-06-26T20:51:40.052Z,23.80
2019-06-26T20:54:56.811Z,16.03
2019-06-26T20:57:48.881Z,14.80
2019-06-26T21:00:51.056Z,13.77
2019-06-26T21:03:54.921Z,14.13
2019-06-26T21:06:56.801Z,13.77
2019-06-26T21:09:58.811Z,12.80
2019-06-26T21:13:03.316Z,12.33
2019-06-26T21:16:07.522Z,11.57
2019-06-26T21:19:09.431Z,12.30
2019-06-26T21:22:12.779Z,12.83
2019-06-26T21:25:18.956Z,14.37
2019-06-26T21:28:18.552Z,11.27
2019-06-26T21:31:20.481Z,28.43
2019-06-26T21:34:22.488Z,12.83
2019-06-26T21:37:24.500Z,12.63
2019-06-26T21:40:26.380Z,11.20
2019-06-26T21:43:28.412Z,12.60
2019-06-26T21:46:30.376Z,12.17
2019-06-26T21:49:32.376Z,11.93
2019-06-26T21:52:34.380Z,12.60
2019-06-26T21:55:36.565Z,13.03
2019-06-26T21:58:56.656Z,37.83
2019-06-26T22:02:17.519Z,13.40
2019-06-26T22:05:22.750Z,12.40
2019-06-26T22:08:42.911Z,11.63
2019-06-26T22:11:45.083Z,12.90
2019-06-26T22:14:47.099Z,13.00
2019-06-26T22:17:48.997Z,11.70
2019-06-26T22:20:50.986Z,11.53
2019-06-26T22:23:53.170Z,11.73
2019-06-26T22:26:56.170Z,11.33
2019-06-26T22:29:58.189Z,11.07
2019-06-26T22:33:00.129Z,12.07
2019-06-26T22:36:02.098Z,12.00
2019-06-26T22:39:05.131Z,12.10
2019-06-26T22:42:07.853Z,11.47
2019-06-26T22:45:10.165Z,11.97
2019-06-26T22:48:12.052Z,11.67
2019-06-26T22:51:14.094Z,12.53
2019-06-26T22:54:19.570Z,13.90
2019-06-26T22:57:19.992Z,11.87
2019-06-26T23:00:22.231Z,13.00
2019-06-26T23:03:24.280Z,11.27
2019-06-26T23:06:26.236Z,12.37
2019-06-26T23:09:28.253Z,14.07
2019-06-26T23:12:30.204Z,11.90
2019-06-26T23:15:32.216Z,13.53
2019-06-26T23:18:34.125Z,13.03
2019-06-26T23:21:36.086Z,14.40
2019-06-26T23:24:37.985Z,12.80
2019-06-26T23:27:39.996Z,13.73
2019-06-26T23:30:41.976Z,13.20
2019-06-26T23:33:44.019Z,13.60
2019-06-26T23:36:45.972Z,12.87
2019-06-26T23:39:47.944Z,14.40
2019-06-26T23:42:49.858Z,14.33
2019-06-26T23:45:52.267Z,13.70
2019-06-26T23:48:54.200Z,14.27
2019-06-26T23:51:56.152Z,15.07
2019-06-26T23:54:58.127Z,16.83
2019-06-26T23:58:00.104Z,16.97
